Time;durP1;ratioP1;P1;durP2;ratioP2;P2;SDS_P1;SDS_P2;PMS_P1;PMS_P2;Temp;Humidity;BMP_temperature;BMP_pressure;BME280_temperature;BME280_humidity;BME280_pressure;Samples;Min_cycle;Max_cycle;Signal;HPM_P1;HPM_P2
2021/08/11 00:00:53;;;;;;;2.52;2.01;;;;;;;;;;338945;158;864491;-58
2021/08/11 00:01:55;;;;;;;3.37;2.04;;;;;;;;;;338816;156;856182;-58
2021/08/11 00:02:56;;;;;;;2.76;1.90;;;;;;;;;;337195;157;856811;-59
2021/08/11 00:03:58;;;;;;;4.18;2.14;;;;;;;;;;338911;159;856653;-58
2021/08/11 00:05:00;;;;;;;2.46;2.10;;;;;;;;;;338261;156;856180;-57
2021/08/11 00:06:01;;;;;;;3.82;2.25;;;;;;;;;;335257;157;863541;-58
2021/08/11 00:07:03;;;;;;;3.20;1.88;;;;;;;;;;336577;157;863754;-58
2021/08/11 00:08:05;;;;;;;4.05;2.04;;;;;;;;;;338943;159;856281;-58
2021/08/11 00:09:06;;;;;;;3.65;2.38;;;;;;;;;;339459;156;856455;-58
2021/08/11 00:10:09;;;;;;;2.58;1.97;;;;;;;;;;338264;157;863575;-59
2021/08/11 00:11:10;;;;;;;2.91;1.93;;;;;;;;;;335653;159;856989;-58
2021/08/11 00:12:12;;;;;;;3.31;2.26;;;;;;;;;;338712;159;856915;-59
2021/08/11 00:13:13;;;;;;;3.59;2.19;;;;;;;;;;338251;156;856809;-59
2021/08/11 00:14:15;;;;;;;2.72;1.96;;;;;;;;;;338831;157;856685;-58
2021/08/11 00:15:16;;;;;;;5.08;2.10;;;;;;;;;;338900;159;856411;-58
2021/08/11 00:16:18;;;;;;;2.65;1.99;;;;;;;;;;339776;156;856534;-58
2021/08/11 00:17:20;;;;;;;3.16;1.95;;;;;;;;;;337733;157;856371;-58
2021/08/11 00:18:22;;;;;;;3.37;2.19;;;;;;;;;;336447;159;856610;-58
2021/08/11 00:19:23;;;;;;;3.64;1.98;;;;;;;;;;339057;159;856545;-59
2021/08/11 00:20:26;;;;;;;3.47;2.44;;;;;;;;;;336433;158;856837;-58
2021/08/11 00:21:28;;;;;;;3.59;1.83;;;;;;;;;;337707;157;856284;-58
2021/08/11 00:22:29;;;;;;;2.63;1.95;;;;;;;;;;338852;158;863637;-58
2021/08/11 00:23:31;;;;;;;3.76;2.04;;;;;;;;;;337642;156;856327;-58
2021/08/11 00:24:32;;;;;;;2.71;1.84;;;;;;;;;;338290;158;856417;-58
2021/08/11 00:25:34;;;;;;;3.21;1.80;;;;;;;;;;337401;159;856836;-58
2021/08/11 00:26:37;;;;;;;3.41;2.06;;;;;;;;;;338761;159;856344;-59
2021/08/11 00:27:39;;;;;;;2.37;2.15;;;;;;;;;;336385;156;856231;-59
2021/08/11 00:28:40;;;;;;;3.26;2.05;;;;;;;;;;338280;157;856208;-58
2021/08/11 00:29:42;;;;;;;6.11;2.33;;;;;;;;;;338931;158;856178;-59
2021/08/11 00:30:44;;;;;;;4.23;2.13;;;;;;;;;;336528;156;856359;-58
2021/08/11 00:31:46;;;;;;;3.49;2.09;;;;;;;;;;336627;157;863651;-58
2021/08/11 00:32:47;;;;;;;2.76;2.25;;;;;;;;;;338121;159;856458;-59
2021/08/11 00:33:49;;;;;;;2.95;2.07;;;;;;;;;;338691;156;856321;-58
2021/08/11 00:34:51;;;;;;;3.37;2.14;;;;;;;;;;338225;157;856605;-60
2021/08/11 00:35:52;;;;;;;10.91;2.46;;;;;;;;;;339385;158;856887;-58
2021/08/11 00:36:54;;;;;;;3.48;2.11;;;;;;;;;;339391;158;856698;-58
2021/08/11 00:37:56;;;;;;;4.22;2.41;;;;;;;;;;336260;158;856449;-58
2021/08/11 00:38:58;;;;;;;4.90;2.73;;;;;;;;;;338433;156;856292;-58
2021/08/11 00:39:59;;;;;;;5.09;2.22;;;;;;;;;;337032;158;856298;-58
2021/08/11 00:41:01;;;;;;;6.26;2.20;;;;;;;;;;339399;156;856313;-58
2021/08/11 00:42:03;;;;;;;3.55;2.26;;;;;;;;;;337591;157;863603;-58
2021/08/11 00:43:05;;;;;;;4.21;2.42;;;;;;;;;;336676;158;856182;-59
2021/08/11 00:44:07;;;;;;;4.80;2.37;;;;;;;;;;338398;158;856681;-58
2021/08/11 00:45:08;;;;;;;3.02;2.00;;;;;;;;;;336299;158;856392;-58
2021/08/11 00:46:12;;;;;;;3.56;1.91;;;;;;;;;;337083;157;856478;-58
2021/08/11 00:47:13;;;;;;;2.23;2.01;;;;;;;;;;339132;158;856846;-58
2021/08/11 00:48:15;;;;;;;2.64;1.93;;;;;;;;;;333754;161;856572;-58
2021/08/11 00:49:17;;;;;;;3.14;2.08;;;;;;;;;;332066;159;856310;-58
2021/08/11 00:50:20;;;;;;;4.65;2.00;;;;;;;;;;332804;160;856488;-58
2021/08/11 00:51:21;;;;;;;3.36;2.29;;;;;;;;;;334529;159;856542;-58
2021/08/11 00:52:23;;;;;;;3.79;2.21;;;;;;;;;;333852;159;856526;-58
2021/08/11 00:53:27;;;;;;;2.45;1.91;;;;;;;;;;327421;161;863845;-58
2021/08/11 00:54:28;;;;;;;2.36;2.14;;;;;;;;;;339073;159;856442;-58
2021/08/11 00:55:32;;;;;;;3.68;2.34;;;;;;;;;;337097;156;856330;-58
2021/08/11 00:56:34;;;;;;;2.42;2.21;;;;;;;;;;337391;157;856315;-58
2021/08/11 00:57:36;;;;;;;3.41;2.13;;;;;;;;;;338279;157;856371;-59
2021/08/11 00:58:37;;;;;;;2.77;2.11;;;;;;;;;;336868;159;856404;-58
2021/08/11 00:59:39;;;;;;;4.81;2.28;;;;;;;;;;337650;156;863610;-58
2021/08/11 01:00:42;;;;;;;2.69;2.05;;;;;;;;;;337883;157;856239;-58
2021/08/11 01:01:43;;;;;;;3.41;2.09;;;;;;;;;;338600;159;856435;-58
2021/08/11 01:02:45;;;;;;;3.04;2.21;;;;;;;;;;337916;156;856585;-58
2021/08/11 01:03:47;;;;;;;4.41;2.07;;;;;;;;;;337056;158;856365;-58
2021/08/11 01:04:48;;;;;;;3.69;2.10;;;;;;;;;;338804;158;856803;-58
2021/08/11 01:05:50;;;;;;;3.10;2.22;;;;;;;;;;338845;159;856346;-58
2021/08/11 01:06:54;;;;;;;2.89;2.24;;;;;;;;;;339233;156;856420;-58
2021/08/11 01:07:56;;;;;;;3.20;2.39;;;;;;;;;;337093;157;856240;-59
2021/08/11 01:08:58;;;;;;;3.73;2.35;;;;;;;;;;337377;159;856809;-58
2021/08/11 01:09:59;;;;;;;3.00;2.24;;;;;;;;;;332465;159;856569;-58
2021/08/11 01:11:01;;;;;;;3.83;2.36;;;;;;;;;;338667;157;856454;-58
2021/08/11 01:12:03;;;;;;;3.25;2.61;;;;;;;;;;336597;158;856365;-58
2021/08/11 01:13:04;;;;;;;2.35;2.14;;;;;;;;;;329151;161;856303;-58
2021/08/11 01:14:06;;;;;;;3.60;2.30;;;;;;;;;;331951;159;856649;-58
2021/08/11 01:15:07;;;;;;;3.75;2.56;;;;;;;;;;337780;157;856260;-58
2021/08/11 01:16:09;;;;;;;3.05;2.12;;;;;;;;;;338035;159;856796;-58
2021/08/11 01:17:11;;;;;;;4.31;2.09;;;;;;;;;;339374;156;856271;-58
2021/08/11 01:18:13;;;;;;;3.74;2.40;;;;;;;;;;337072;158;856219;-58
2021/08/11 01:19:17;;;;;;;4.07;2.50;;;;;;;;;;338033;157;856205;-58
2021/08/11 01:20:19;;;;;;;4.49;2.55;;;;;;;;;;339262;159;856333;-58
2021/08/11 01:21:25;;;;;;;3.23;2.27;;;;;;;;;;336485;156;856397;-58
2021/08/11 01:22:29;;;;;;;4.79;2.21;;;;;;;;;;335739;158;856566;-58
2021/08/11 01:23:35;;;;;;;3.31;2.19;;;;;;;;;;337398;159;856290;-58
2021/08/11 01:24:51;;;;;;;3.19;2.38;;;;;;;;;;335407;157;856216;-58
2021/08/11 01:25:54;;;;;;;3.12;2.42;;;;;;;;;;335895;158;856286;-58
2021/08/11 01:27:06;;;;;;;3.94;2.40;;;;;;;;;;337425;159;856177;-58
2021/08/11 01:28:19;;;;;;;3.97;2.33;;;;;;;;;;336304;157;857121;-58
2021/08/11 01:29:23;;;;;;;3.79;2.23;;;;;;;;;;334433;158;856406;-58
2021/08/11 01:30:30;;;;;;;2.91;2.41;;;;;;;;;;336823;159;856477;-58
2021/08/11 01:31:42;;;;;;;2.92;2.29;;;;;;;;;;335441;159;856386;-58
2021/08/11 01:33:00;;;;;;;2.88;2.52;;;;;;;;;;335766;157;856840;-58
2021/08/11 01:34:09;;;;;;;3.95;2.54;;;;;;;;;;336936;157;856309;-58
2021/08/11 01:35:11;;;;;;;3.42;2.42;;;;;;;;;;332342;158;856272;-58
2021/08/11 01:36:18;;;;;;;5.03;2.49;;;;;;;;;;333654;157;856383;-58
2021/08/11 01:37:23;;;;;;;4.43;2.36;;;;;;;;;;340636;155;856764;-58
2021/08/11 01:38:24;;;;;;;4.81;2.65;;;;;;;;;;340471;157;856382;-58
2021/08/11 01:39:32;;;;;;;6.30;2.66;;;;;;;;;;339197;155;857025;-58
2021/08/11 01:40:35;;;;;;;3.50;2.53;;;;;;;;;;339771;157;864232;-58
2021/08/11 01:41:37;;;;;;;3.29;2.61;;;;;;;;;;340842;155;856328;-59
2021/08/11 01:42:39;;;;;;;3.23;2.67;;;;;;;;;;340571;155;856186;-58
2021/08/11 01:43:42;;;;;;;3.53;2.43;;;;;;;;;;339654;155;856840;-58
2021/08/11 01:44:45;;;;;;;2.71;2.30;;;;;;;;;;340364;156;863623;-59
2021/08/11 01:45:47;;;;;;;4.92;2.47;;;;;;;;;;339192;155;856414;-58
2021/08/11 01:46:50;;;;;;;2.96;2.14;;;;;;;;;;339414;155;856522;-58
2021/08/11 01:47:54;;;;;;;3.27;2.44;;;;;;;;;;340124;156;856875;-58
2021/08/11 01:48:56;;;;;;;4.51;2.51;;;;;;;;;;341300;155;856403;-59
2021/08/11 01:49:57;;;;;;;3.90;2.09;;;;;;;;;;340580;155;856739;-59
2021/08/11 01:50:59;;;;;;;3.25;2.55;;;;;;;;;;338685;155;856651;-58
2021/08/11 01:52:01;;;;;;;3.72;2.44;;;;;;;;;;340488;156;863461;-58
2021/08/11 01:53:02;;;;;;;3.19;2.36;;;;;;;;;;340375;157;863630;-58
2021/08/11 01:54:05;;;;;;;2.80;2.37;;;;;;;;;;334231;158;856871;-58
2021/08/11 01:55:08;;;;;;;2.64;2.21;;;;;;;;;;336381;157;863604;-58
2021/08/11 01:56:11;;;;;;;4.60;2.18;;;;;;;;;;342069;156;863272;-58
2021/08/11 01:57:13;;;;;;;5.33;2.51;;;;;;;;;;334411;160;856264;-58
2021/08/11 01:58:14;;;;;;;2.76;2.39;;;;;;;;;;335527;155;857584;-58
2021/08/11 01:59:16;;;;;;;2.46;2.22;;;;;;;;;;341757;155;856243;-60
2021/08/11 02:00:19;;;;;;;5.09;2.25;;;;;;;;;;340028;155;856719;-58
2021/08/11 02:01:20;;;;;;;3.44;2.13;;;;;;;;;;340037;155;857105;-58
2021/08/11 02:02:23;;;;;;;2.81;2.32;;;;;;;;;;338297;157;857130;-58
2021/08/11 02:03:24;;;;;;;2.60;2.30;;;;;;;;;;340054;155;856537;-58
2021/08/11 02:04:26;;;;;;;3.17;2.36;;;;;;;;;;338460;155;863746;-58
2021/08/11 02:05:30;;;;;;;5.01;2.43;;;;;;;;;;339382;156;856958;-58
2021/08/11 02:06:31;;;;;;;4.68;2.40;;;;;;;;;;340359;155;857310;-58
2021/08/11 02:07:33;;;;;;;2.56;2.14;;;;;;;;;;341071;155;856727;-58
2021/08/11 02:08:35;;;;;;;4.24;2.51;;;;;;;;;;338067;155;856650;-57
2021/08/11 02:09:36;;;;;;;2.61;2.41;;;;;;;;;;340618;156;856262;-58
2021/08/11 02:10:42;;;;;;;3.06;2.65;;;;;;;;;;341621;155;856199;-58
2021/08/11 02:11:43;;;;;;;3.33;2.53;;;;;;;;;;340080;155;856829;-58
2021/08/11 02:12:44;;;;;;;5.80;2.63;;;;;;;;;;338427;155;856837;-58
2021/08/11 02:13:46;;;;;;;6.37;2.80;;;;;;;;;;344702;155;856826;-58
2021/08/11 02:14:48;;;;;;;4.61;2.81;;;;;;;;;;341170;153;856548;-58
2021/08/11 02:15:49;;;;;;;6.18;2.72;;;;;;;;;;339997;157;856296;-58
2021/08/11 02:16:52;;;;;;;4.71;2.76;;;;;;;;;;341121;155;856699;-58
2021/08/11 02:17:54;;;;;;;4.19;2.74;;;;;;;;;;340430;156;856176;-58
2021/08/11 02:18:55;;;;;;;4.46;2.50;;;;;;;;;;333275;159;863681;-59
2021/08/11 02:19:57;;;;;;;5.51;2.90;;;;;;;;;;332240;158;856231;-58
2021/08/11 02:21:00;;;;;;;3.99;2.45;;;;;;;;;;340494;158;856411;-58
2021/08/11 02:22:02;;;;;;;4.74;2.56;;;;;;;;;;340565;158;856223;-58
2021/08/11 02:23:03;;;;;;;4.54;2.68;;;;;;;;;;337628;156;856912;-58
2021/08/11 02:24:05;;;;;;;3.45;2.51;;;;;;;;;;332795;160;863725;-58
2021/08/11 02:25:08;;;;;;;4.93;2.63;;;;;;;;;;336049;157;856317;-58
2021/08/11 02:26:15;;;;;;;5.69;2.82;;;;;;;;;;335552;160;856914;-59
2021/08/11 02:27:17;;;;;;;5.16;2.79;;;;;;;;;;333983;157;856706;-59
2021/08/11 02:28:24;;;;;;;4.35;2.76;;;;;;;;;;338734;157;856448;-58
2021/08/11 02:29:36;;;;;;;6.61;2.89;;;;;;;;;;334781;157;856395;-58
2021/08/11 02:30:40;;;;;;;4.21;2.68;;;;;;;;;;336858;157;856151;-58
2021/08/11 02:32:01;;;;;;;4.08;2.73;;;;;;;;;;336025;157;856181;-58
2021/08/11 02:33:10;;;;;;;4.32;2.77;;;;;;;;;;336164;160;856152;-58
2021/08/11 02:34:15;;;;;;;5.73;2.63;;;;;;;;;;335028;157;856820;-58
2021/08/11 02:35:19;;;;;;;3.72;2.52;;;;;;;;;;335585;159;856298;-58
2021/08/11 02:36:27;;;;;;;4.37;3.12;;;;;;;;;;333324;160;856458;-58
2021/08/11 02:37:36;;;;;;;4.32;2.86;;;;;;;;;;335805;157;863757;-57
2021/08/11 02:38:39;;;;;;;5.61;3.16;;;;;;;;;;336878;157;856767;-58
2021/08/11 02:39:43;;;;;;;4.56;2.90;;;;;;;;;;336568;157;856260;-58
2021/08/11 02:40:59;;;;;;;4.26;2.69;;;;;;;;;;334892;158;863750;-58
2021/08/11 02:42:01;;;;;;;5.71;2.79;;;;;;;;;;336613;158;856496;-58
2021/08/11 02:43:19;;;;;;;4.03;2.76;;;;;;;;;;336676;160;856772;-58
2021/08/11 02:44:22;;;;;;;4.64;2.56;;;;;;;;;;335107;157;856460;-58
2021/08/11 02:45:24;;;;;;;3.23;2.67;;;;;;;;;;335594;157;856521;-58
2021/08/11 02:46:27;;;;;;;3.19;2.65;;;;;;;;;;336904;157;856547;-57
2021/08/11 02:47:28;;;;;;;5.11;2.57;;;;;;;;;;336501;157;856397;-58
2021/08/11 02:48:30;;;;;;;5.26;2.77;;;;;;;;;;334989;157;856991;-59
2021/08/11 02:49:32;;;;;;;4.20;2.54;;;;;;;;;;338189;157;863765;-58
2021/08/11 02:50:34;;;;;;;3.53;2.51;;;;;;;;;;337057;157;856309;-58
2021/08/11 02:51:36;;;;;;;3.33;2.61;;;;;;;;;;335418;157;856313;-57
2021/08/11 02:52:37;;;;;;;7.18;2.87;;;;;;;;;;336575;157;856713;-59
2021/08/11 02:53:40;;;;;;;6.81;2.48;;;;;;;;;;335818;157;863735;-58
2021/08/11 02:54:41;;;;;;;4.04;2.61;;;;;;;;;;335452;160;863806;-58
2021/08/11 02:55:43;;;;;;;4.98;2.97;;;;;;;;;;335274;160;856724;-59
2021/08/11 02:56:47;;;;;;;5.30;2.66;;;;;;;;;;336215;157;856848;-62
2021/08/11 02:57:48;;;;;;;4.30;2.65;;;;;;;;;;336353;157;856450;-60
2021/08/11 02:58:50;;;;;;;3.04;2.75;;;;;;;;;;341203;156;856345;-62
2021/08/11 02:59:51;;;;;;;5.89;2.79;;;;;;;;;;336622;157;856473;-63
2021/08/11 03:00:54;;;;;;;3.40;2.67;;;;;;;;;;342077;155;856256;-62
2021/08/11 03:01:55;;;;;;;2.81;2.51;;;;;;;;;;341391;154;863808;-63
2021/08/11 03:02:57;;;;;;;4.56;2.63;;;;;;;;;;341661;156;856831;-62
2021/08/11 03:03:59;;;;;;;4.18;2.71;;;;;;;;;;340992;157;856696;-62
2021/08/11 03:05:00;;;;;;;4.68;2.55;;;;;;;;;;335812;159;856346;-61
2021/08/11 03:06:02;;;;;;;3.26;2.44;;;;;;;;;;337017;157;856274;-63
2021/08/11 03:07:03;;;;;;;4.36;2.61;;;;;;;;;;328823;161;863679;-63
2021/08/11 03:08:06;;;;;;;5.34;2.67;;;;;;;;;;332610;162;856243;-63
2021/08/11 03:09:08;;;;;;;3.26;2.33;;;;;;;;;;335973;159;856261;-63
2021/08/11 03:25:52;;;;;;;8.05;2.91;;;;;;;;;;368219;142;881796;-63
2021/08/11 03:26:55;;;;;;;3.99;2.65;;;;;;;;;;365527;147;856168;-65
2021/08/11 03:27:56;;;;;;;3.50;2.24;;;;;;;;;;364451;146;856304;-66
2021/08/11 03:29:01;;;;;;;9.44;2.98;;;;;;;;;;366180;147;856446;-65
2021/08/11 03:30:03;;;;;;;6.60;2.93;;;;;;;;;;363884;147;856303;-63
2021/08/11 03:31:05;;;;;;;4.54;2.76;;;;;;;;;;364680;146;857192;-65
2021/08/11 03:32:06;;;;;;;5.04;2.77;;;;;;;;;;363402;146;858159;-65
2021/08/11 03:33:08;;;;;;;11.20;2.92;;;;;;;;;;363070;147;856305;-64
2021/08/11 03:34:09;;;;;;;10.26;2.86;;;;;;;;;;364565;147;863518;-64
2021/08/11 03:35:11;;;;;;;4.04;2.76;;;;;;;;;;363963;146;856407;-66
2021/08/11 03:36:14;;;;;;;6.01;2.91;;;;;;;;;;365487;147;856215;-64
2021/08/11 03:37:16;;;;;;;4.06;2.84;;;;;;;;;;365804;147;856178;-66
2021/08/11 03:38:18;;;;;;;4.73;2.73;;;;;;;;;;364664;147;856689;-65
2021/08/11 03:39:20;;;;;;;4.40;2.57;;;;;;;;;;365391;146;856462;-65
2021/08/11 03:40:23;;;;;;;6.73;3.02;;;;;;;;;;364761;147;863683;-65
2021/08/11 03:41:24;;;;;;;5.04;2.47;;;;;;;;;;363720;147;856970;-59
2021/08/11 03:42:26;;;;;;;6.09;2.59;;;;;;;;;;362876;146;859892;-59
2021/08/11 03:43:27;;;;;;;3.43;2.61;;;;;;;;;;361526;146;856435;-59
2021/08/11 03:44:29;;;;;;;3.75;2.58;;;;;;;;;;360269;147;856144;-64
2021/08/11 03:45:30;;;;;;;2.94;2.64;;;;;;;;;;358271;147;856847;-62
2021/08/11 03:46:33;;;;;;;3.42;2.86;;;;;;;;;;357203;148;856244;-60
2021/08/11 03:47:37;;;;;;;5.01;3.29;;;;;;;;;;357727;148;856112;-61
2021/08/11 03:48:38;;;;;;;5.55;3.48;;;;;;;;;;357508;148;856190;-63
2021/08/11 03:49:40;;;;;;;3.39;3.05;;;;;;;;;;356780;148;856126;-61
2021/08/11 03:50:42;;;;;;;3.35;3.03;;;;;;;;;;359468;147;863741;-64
2021/08/11 03:51:44;;;;;;;3.68;2.98;;;;;;;;;;362134;147;856654;-63
2021/08/11 03:52:45;;;;;;;4.58;3.31;;;;;;;;;;356422;148;856440;-64
2021/08/11 03:53:47;;;;;;;7.01;3.31;;;;;;;;;;357688;147;856347;-63
2021/08/11 03:54:48;;;;;;;3.36;3.06;;;;;;;;;;352992;150;856153;-62
2021/08/11 03:55:50;;;;;;;3.89;3.49;;;;;;;;;;354985;148;856234;-62
2021/08/11 03:56:52;;;;;;;4.96;2.83;;;;;;;;;;356655;149;856187;-60
2021/08/11 03:57:54;;;;;;;3.42;2.96;;;;;;;;;;355662;148;863584;-63
2021/08/11 03:58:56;;;;;;;5.34;3.01;;;;;;;;;;356407;148;856244;-62
2021/08/11 03:59:57;;;;;;;6.37;3.50;;;;;;;;;;357187;147;856457;-67
2021/08/11 04:00:59;;;;;;;4.26;2.94;;;;;;;;;;357536;148;856629;-64
2021/08/11 04:02:01;;;;;;;4.87;3.06;;;;;;;;;;358948;150;863658;-64
2021/08/11 04:03:02;;;;;;;6.56;3.32;;;;;;;;;;360186;148;856719;-65
2021/08/11 04:04:04;;;;;;;7.01;2.94;;;;;;;;;;351013;151;856161;-64
2021/08/11 04:05:06;;;;;;;4.00;3.05;;;;;;;;;;352865;152;856191;-64
2021/08/11 04:06:10;;;;;;;9.31;3.37;;;;;;;;;;357436;147;856160;-63
2021/08/11 04:07:11;;;;;;;7.82;3.05;;;;;;;;;;357051;147;856747;-64
2021/08/11 04:08:14;;;;;;;7.15;2.84;;;;;;;;;;356132;148;856112;-64
2021/08/11 04:09:15;;;;;;;6.01;3.01;;;;;;;;;;361036;147;856271;-65
2021/08/11 04:10:17;;;;;;;6.52;3.29;;;;;;;;;;357670;148;856560;-62
2021/08/11 04:11:19;;;;;;;4.04;3.13;;;;;;;;;;359888;147;863774;-65
2021/08/11 04:12:20;;;;;;;4.10;2.92;;;;;;;;;;357805;148;856444;-65
2021/08/11 04:13:22;;;;;;;5.04;3.06;;;;;;;;;;359998;147;856680;-64
2021/08/11 04:14:23;;;;;;;3.25;2.61;;;;;;;;;;358087;147;856486;-63
2021/08/11 04:15:25;;;;;;;4.26;3.01;;;;;;;;;;358408;147;856478;-65
2021/08/11 04:16:27;;;;;;;3.60;3.02;;;;;;;;;;357726;148;856384;-65
2021/08/11 04:17:29;;;;;;;3.40;2.82;;;;;;;;;;350996;151;856267;-66
2021/08/11 04:18:30;;;;;;;3.21;2.84;;;;;;;;;;358135;148;856177;-63
2021/08/11 04:19:32;;;;;;;3.89;2.82;;;;;;;;;;359254;148;856209;-62
2021/08/11 04:20:35;;;;;;;4.87;3.08;;;;;;;;;;358804;147;856274;-61
2021/08/11 04:21:37;;;;;;;4.97;3.01;;;;;;;;;;358901;147;856498;-60
2021/08/11 04:22:39;;;;;;;4.95;3.14;;;;;;;;;;360533;147;856483;-63
2021/08/11 04:23:40;;;;;;;4.08;2.84;;;;;;;;;;362509;147;857370;-61
2021/08/11 04:24:42;;;;;;;4.60;3.23;;;;;;;;;;357394;147;856692;-61
2021/08/11 04:25:44;;;;;;;4.08;2.85;;;;;;;;;;358645;147;856975;-63
2021/08/11 04:26:47;;;;;;;5.40;3.22;;;;;;;;;;354997;149;856491;-63
2021/08/11 04:27:48;;;;;;;3.36;3.06;;;;;;;;;;357233;147;856703;-64
2021/08/11 04:28:50;;;;;;;5.14;3.06;;;;;;;;;;360140;147;856302;-65
2021/08/11 04:29:51;;;;;;;4.20;2.96;;;;;;;;;;356981;148;863680;-62
2021/08/11 04:30:53;;;;;;;8.25;3.56;;;;;;;;;;358969;148;856695;-64
2021/08/11 04:31:55;;;;;;;4.08;3.12;;;;;;;-147.14;100.00;112913.77;359691;147;856263;-63
2021/08/11 04:32:57;;;;;;;5.17;2.56;;;;;;;;;;358542;148;856293;-64
2021/08/11 04:33:58;;;;;;;3.49;2.53;;;;;;;;;;360264;147;863665;-62
2021/08/11 04:35:00;;;;;;;3.14;2.60;;;;;;;;;;362613;147;863716;-63
2021/08/11 04:36:01;;;;;;;3.84;2.67;;;;;;;;;;358504;147;856336;-63
2021/08/11 04:37:05;;;;;;;3.66;2.69;;;;;;;;;;359788;147;856361;-62
2021/08/11 04:38:06;;;;;;;6.59;3.10;;;;;;;;;;358115;147;856663;-63
2021/08/11 04:39:08;;;;;;;4.30;2.95;;;;;;;;;;357115;148;856431;-61
2021/08/11 04:40:10;;;;;;;3.27;2.93;;;;;;;;;;358318;148;863695;-62
2021/08/11 04:41:13;;;;;;;3.62;3.01;;;;;;;;;;360184;147;856699;-61
2021/08/11 04:42:15;;;;;;;5.35;2.95;;;;;;;;;;358400;147;856423;-62
2021/08/11 04:43:16;;;;;;;3.56;2.83;;;;;;;;;;357787;147;863654;-63
2021/08/11 04:44:18;;;;;;;4.10;3.15;;;;;;;;;;357617;147;861091;-63
2021/08/11 04:45:19;;;;;;;4.37;3.06;;;;;;;;;;358862;147;856433;-63
2021/08/11 04:46:21;;;;;;;4.02;2.89;;;;;;;;;;357824;149;856571;-62
2021/08/11 04:47:23;;;;;;;7.09;3.10;;;;;;;;;;355375;149;863949;-63
2021/08/11 04:48:24;;;;;;;3.63;3.23;;;;;;;;;;357984;147;857140;-63
2021/08/11 04:49:26;;;;;;;5.99;3.39;;;;;;;;;;358237;147;857098;-62
2021/08/11 04:50:28;;;;;;;4.50;3.25;;;;;;;;;;358067;147;856488;-62
2021/08/11 04:51:30;;;;;;;3.44;3.04;;;;;;;;;;355575;147;856250;-62
2021/08/11 04:52:31;;;;;;;5.55;3.28;;;;;;;;;;355710;149;856370;-62
2021/08/11 04:53:33;;;;;;;6.94;3.01;;;;;;;;;;357489;149;856313;-63
2021/08/11 04:54:34;;;;;;;6.19;3.23;;;;;;;;;;358360;148;856346;-63
2021/08/11 04:55:36;;;;;;;3.94;3.19;;;;;;;;;;356715;149;856264;-63
2021/08/11 04:56:38;;;;;;;3.55;3.25;;;;;;;;;;356988;147;856234;-62
2021/08/11 04:57:40;;;;;;;5.66;3.16;;;;;;;;;;359360;147;856368;-62
2021/08/11 04:58:42;;;;;;;5.36;2.88;;;;;;;;;;350298;150;856239;-63
2021/08/11 04:59:43;;;;;;;4.29;3.02;;;;;;;;;;350441;150;857081;-63
2021/08/11 05:00:45;;;;;;;3.19;2.83;;;;;;;;;;357873;147;856413;-63
2021/08/11 05:01:47;;;;;;;4.40;3.29;;;;;;;;;;356818;147;856992;-63
2021/08/11 05:02:48;;;;;;;3.42;2.91;;;;;;;;;;360652;147;856210;-62
2021/08/11 05:03:50;;;;;;;4.71;3.20;;;;;;;;;;358657;147;856559;-64
2021/08/11 05:04:52;;;;;;;4.06;3.21;;;;;;;;;;358898;147;856408;-63
2021/08/11 05:05:53;;;;;;;5.86;3.29;;;;;;;;;;359775;147;856590;-64
2021/08/11 05:06:57;;;;;;;5.26;3.39;;;;;;;;;;355945;149;856460;-64
2021/08/11 05:07:58;;;;;;;3.92;3.00;;;;;;;;;;357530;149;856333;-63
2021/08/11 05:09:00;;;;;;;6.14;3.18;;;;;;;;;;355776;149;864273;-63
2021/08/11 05:10:01;;;;;;;6.85;3.04;;;;;;;;;;359212;149;856760;-63
2021/08/11 05:11:03;;;;;;;5.73;2.93;;;;;;;;;;359761;149;863682;-63
2021/08/11 05:12:05;;;;;;;6.71;3.17;;;;;;;;;;356654;149;856464;-63
2021/08/11 05:13:06;;;;;;;4.12;3.11;;;;;;;;;;360603;148;863554;-64
2021/08/11 05:14:08;;;;;;;6.11;3.99;;;;;;;;;;359758;149;863496;-63
2021/08/11 05:15:10;;;;;;;5.49;3.09;;;;;;;;;;355992;148;857398;-64
2021/08/11 05:16:13;;;;;;;4.45;2.73;;;;;;;;;;357963;149;856155;-65
2021/08/11 05:17:20;;;;;;;5.44;3.64;;;;;;;;;;358653;149;856960;-64
2021/08/11 05:18:18;;;;;;;4.94;3.60;;;;;;;;;;356764;149;856370;-64
2021/08/11 05:19:20;;;;;;;5.69;3.51;;;;;;;;;;355802;149;856361;-64
2021/08/11 05:20:23;;;;;;;4.47;2.92;;;;;;;;;;355674;149;856557;-65
2021/08/11 05:21:25;;;;;;;4.24;3.59;;;;;;;;;;358322;149;856440;-64
2021/08/11 05:22:26;;;;;;;5.12;2.96;;;;;;;;;;355785;148;864517;-64
2021/08/11 05:23:28;;;;;;;4.23;3.14;;;;;;;;;;355597;149;856389;-64
2021/08/11 05:24:29;;;;;;;3.63;3.20;;;;;;;;;;357274;148;856757;-64
2021/08/11 05:25:31;;;;;;;3.93;3.06;;;;;;;;;;356974;149;856352;-64
2021/08/11 05:26:34;;;;;;;3.99;3.13;;;;;;;;;;357317;148;856314;-63
2021/08/11 05:27:36;;;;;;;6.16;3.23;;;;;;;;;;359715;149;856209;-64
2021/08/11 05:28:37;;;;;;;3.88;3.43;;;;;;;;;;357091;149;856481;-64
2021/08/11 05:29:42;;;;;;;5.90;3.11;;;;;;;;;;358087;149;856892;-64
2021/08/11 05:30:43;;;;;;;4.29;3.05;;;;;;;;;;354377;148;856365;-64
2021/08/11 05:31:45;;;;;;;3.70;3.16;;;;;;;;;;354916;147;856320;-64
2021/08/11 05:32:46;;;;;;;4.90;3.21;;;;;;;;;;358891;148;856883;-64
2021/08/11 05:33:48;;;;;;;5.56;3.05;;;;;;;;;;357893;149;863698;-64
2021/08/11 05:34:49;;;;;;;3.77;3.23;;;;;;;;;;358427;149;856875;-64
2021/08/11 05:35:51;;;;;;;5.01;3.45;;;;;;;;;;359744;149;856166;-65
2021/08/11 05:36:53;;;;;;;4.98;3.15;;;;;;;;;;356493;149;856243;-62
2021/08/11 05:37:55;;;;;;;7.00;3.36;;;;;;;;;;360108;148;856593;-62
2021/08/11 05:38:57;;;;;;;4.04;2.91;;;;;;;;;;358604;148;863535;-63
2021/08/11 05:39:58;;;;;;;7.64;3.74;;;;;;;;;;359980;148;863521;-65
2021/08/11 05:41:00;;;;;;;4.14;3.66;;;;;;;;;;359330;148;856241;-66
2021/08/11 05:42:02;;;;;;;4.36;3.76;;;;;;;;;;360296;148;856289;-65
2021/08/11 05:43:03;;;;;;;3.92;3.27;;;;;;;;;;357097;148;856513;-66
2021/08/11 05:44:05;;;;;;;4.07;3.19;;;;;;;;;;357685;149;863769;-64
2021/08/11 05:45:07;;;;;;;4.73;3.25;;;;;;;;;;353050;150;856398;-63
2021/08/11 05:46:10;;;;;;;4.81;3.07;;;;;;;;;;353426;150;856212;-63
2021/08/11 05:47:11;;;;;;;5.16;3.69;;;;;;;;;;357146;148;858927;-62
2021/08/11 05:48:13;;;;;;;7.59;3.39;;;;;;;;;;358287;148;859783;-63
2021/08/11 05:49:14;;;;;;;5.99;3.25;;;;;;;;;;359315;148;859792;-64
2021/08/11 05:50:17;;;;;;;5.32;3.29;;;;;;;;;;358795;148;864910;-64
2021/08/11 05:51:18;;;;;;;7.21;3.49;;;;;;;;;;356562;149;857391;-63
2021/08/11 05:52:20;;;;;;;3.62;3.15;;;;;;;;;;356557;151;857366;-64
2021/08/11 05:53:21;;;;;;;5.86;3.14;;;;;;;;;;359217;148;857363;-64
2021/08/11 05:54:23;;;;;;;3.54;2.98;;;;;;;;;;359030;148;857551;-64
2021/08/11 05:55:24;;;;;;;3.72;3.42;;;;;;;;;;358478;148;857457;-63
2021/08/11 05:56:27;;;;;;;5.40;3.21;;;;;;;;;;356207;149;857679;-64
2021/08/11 05:57:30;;;;;;;6.03;3.68;;;;;;;22.15;96.79;-15512.12;358511;149;856166;-64
2021/08/11 05:58:32;;;;;;;6.18;2.80;;;;;;;;;;356735;149;856395;-64
2021/08/11 05:59:36;;;;;;;3.65;3.08;;;;;;;;;;358552;149;863555;-64
2021/08/11 06:00:39;;;;;;;8.36;3.03;;;;;;;;;;360481;149;856519;-64
2021/08/11 06:01:41;;;;;;;5.01;2.85;;;;;;;;;;357379;149;856276;-65
2021/08/11 06:02:43;;;;;;;10.72;3.15;;;;;;;;;;356889;149;856205;-64
2021/08/11 06:03:44;;;;;;;3.79;2.93;;;;;;;;;;355707;149;856991;-65
2021/08/11 06:04:46;;;;;;;4.76;3.43;;;;;;;;;;357905;148;856344;-64
2021/08/11 06:05:48;;;;;;;6.30;3.28;;;;;;;;;;356933;147;856379;-63
2021/08/11 06:06:51;;;;;;;5.48;3.51;;;;;;;;;;359055;150;856131;-64
2021/08/11 06:07:52;;;;;;;6.71;3.14;;;;;;;;;;357217;147;856326;-62
2021/08/11 06:08:54;;;;;;;5.22;3.44;;;;;;;;;;358040;148;856393;-63
2021/08/11 06:09:56;;;;;;;3.87;3.18;;;;;;;;;;356962;148;863585;-64
2021/08/11 06:10:57;;;;;;;4.54;3.29;;;;;;;;;;355242;147;863623;-65
2021/08/11 06:11:59;;;;;;;6.36;3.22;;;;;;;;;;358468;148;863578;-64
2021/08/11 06:13:01;;;;;;;5.66;2.96;;;;;;;;;;356266;148;856257;-65
2021/08/11 06:14:03;;;;;;;3.46;3.11;;;;;;;;;;358485;148;856306;-65
2021/08/11 06:15:05;;;;;;;4.96;3.10;;;;;;;;;;359482;148;856961;-64
2021/08/11 06:16:07;;;;;;;6.92;3.05;;;;;;;;;;358908;148;856348;-64
2021/08/11 06:17:08;;;;;;;3.97;2.77;;;;;;;;;;356683;147;856553;-65
2021/08/11 06:18:10;;;;;;;3.99;3.33;;;;;;;;;;359329;147;856368;-65
2021/08/11 06:19:12;;;;;;;3.89;3.08;;;;;;;;;;358411;147;856245;-64
2021/08/11 06:20:16;;;;;;;6.18;2.99;;;;;;;;;;357810;147;857235;-66
2021/08/11 06:21:17;;;;;;;5.03;3.17;;;;;;;;;;356540;147;857313;-67
2021/08/11 06:22:19;;;;;;;7.24;3.06;;;;;;;;;;358413;147;859002;-63
2021/08/11 06:23:21;;;;;;;3.58;2.64;;;;;;;;;;351382;150;860029;-63
2021/08/11 06:24:22;;;;;;;3.81;3.07;;;;;;;;;;358729;147;863769;-67